Time;durP1;ratioP1;P1;durP2;ratioP2;P2;SDS_P1;SDS_P2;PMS_P1;PMS_P2;Temp;Humidity;BMP_temperature;BMP_pressure;BME280_temperature;BME280_humidity;BME280_pressure;Samples;Min_cycle;Max_cycle;Signal;HPM_P1;HPM_P2
2023/01/18 00:00:40;;;;;;;;;24.00;19.00;;;;;6.54;100.00;99015.00;5038614;28;45671;-77
2023/01/18 00:03:12;;;;;;;;;26.50;21.50;;;;;6.52;100.00;99017.88;5015576;28;45389;-77
2023/01/18 00:05:39;;;;;;;;;25.25;23.75;;;;;6.58;100.00;99019.06;5019758;28;45313;-77
2023/01/18 00:08:15;;;;;;;;;24.75;24.00;;;;;6.68;100.00;99025.16;4996997;28;45414;-76
2023/01/18 00:10:41;;;;;;;;;33.75;27.00;;;;;6.56;100.00;99026.50;5037191;28;47337;-77
2023/01/18 00:13:07;;;;;;;;;29.25;25.00;;;;;6.50;100.00;99010.97;5014852;28;45458;-77
2023/01/18 00:15:33;;;;;;;;;27.25;24.50;;;;;6.43;100.00;99036.91;5022566;28;45490;-78
2023/01/18 00:17:59;;;;;;;;;30.25;23.00;;;;;6.44;100.00;99025.09;5015567;28;45372;-76
2023/01/18 00:20:26;;;;;;;;;31.75;23.25;;;;;6.51;100.00;99029.66;5037602;28;48462;-76
2023/01/18 00:22:52;;;;;;;;;24.00;22.25;;;;;6.48;100.00;99034.56;5016304;28;45506;-76
2023/01/18 00:25:19;;;;;;;;;25.00;18.50;;;;;6.44;100.00;99027.78;5022661;28;45349;-75
2023/01/18 00:27:47;;;;;;;;;30.75;23.50;;;;;6.35;100.00;99039.59;4998451;28;45523;-75
2023/01/18 00:30:13;;;;;;;;;30.25;26.50;;;;;6.25;100.00;99032.47;5008283;28;47177;-76
2023/01/18 00:32:39;;;;;;;;;28.00;25.00;;;;;6.19;100.00;99030.41;5015607;28;45301;-76
2023/01/18 00:35:06;;;;;;;;;32.25;25.00;;;;;6.33;100.00;99034.34;5004825;28;45354;-76
2023/01/18 00:37:35;;;;;;;;;27.50;23.00;;;;;6.31;100.00;99043.59;4998994;28;45527;-76
2023/01/18 00:40:02;;;;;;;;;24.25;24.25;;;;;6.30;100.00;99037.34;5013740;28;46282;-76
2023/01/18 00:45:12;;;;;;;;;29.50;22.00;;;;;6.33;100.00;99052.38;5012661;28;45489;-76
2023/01/18 00:47:37;;;;;;;;;31.75;23.50;;;;;6.25;100.00;99051.34;5001287;28;45329;-76
2023/01/18 00:50:03;;;;;;;;;26.75;23.75;;;;;6.28;100.00;99049.34;5020053;28;46362;-76
2023/01/18 00:52:29;;;;;;;;;32.75;28.00;;;;;6.30;100.00;99069.72;5019266;28;45312;-76
2023/01/18 00:54:54;;;;;;;;;26.50;20.75;;;;;6.27;100.00;99069.22;5021115;28;45603;-76
2023/01/18 00:57:19;;;;;;;;;27.50;26.25;;;;;6.14;100.00;99065.09;5020571;28;45206;-76
2023/01/18 00:59:45;;;;;;;;;31.25;27.50;;;;;6.09;100.00;99066.59;5003899;28;46644;-76
2023/01/18 01:02:11;;;;;;;;;23.75;23.25;;;;;6.04;100.00;99075.19;5034935;28;45438;-76
2023/01/18 01:07:21;;;;;;;;;26.50;24.75;;;;;5.95;100.00;99083.38;5018109;28;45364;-76
2023/01/18 01:09:46;;;;;;;;;26.75;25.25;;;;;5.85;100.00;99081.59;5035249;28;47151;-76
2023/01/18 01:26:12;;;;;;;;;24.00;24.00;;;;;5.78;100.00;99101.25;5025546;28;45498;-76
2023/01/18 01:28:42;;;;;;;;;29.50;26.00;;;;;5.87;100.00;99111.06;5018821;28;45460;-76
2023/01/18 01:31:10;;;;;;;;;25.25;24.25;;;;;5.77;100.00;99102.28;5025292;28;45506;-76
2023/01/18 01:33:37;;;;;;;;;24.50;23.25;;;;;5.77;100.00;99121.94;5014986;28;44865;-76
2023/01/18 01:36:05;;;;;;;;;23.25;20.50;;;;;5.80;100.00;99104.63;5002564;28;45424;-76
2023/01/18 01:38:32;;;;;;;;;23.75;22.25;;;;;5.88;100.00;99120.03;5019832;28;45544;-76
2023/01/18 01:40:58;;;;;;;;;27.75;26.50;;;;;5.79;100.00;99129.88;5023659;28;48272;-76
2023/01/18 01:43:46;;;;;;;;;24.00;22.25;;;;;5.81;100.00;99126.03;5003186;28;45342;-76
2023/01/18 01:46:34;;;;;;;;;22.25;22.25;;;;;5.67;100.00;99114.97;5024047;28;45359;-76
2023/01/18 01:49:27;;;;;;;;;30.25;26.50;;;;;5.69;100.00;99135.41;5020657;28;46285;-76
2023/01/18 01:52:14;;;;;;;;;30.25;27.00;;;;;5.69;100.00;99139.94;5023284;28;45761;-76
2023/01/18 01:55:04;;;;;;;;;30.75;26.75;;;;;5.71;100.00;99143.28;5020142;28;45939;-76
2023/01/18 01:57:46;;;;;;;;;32.75;26.75;;;;;5.62;100.00;99144.25;5022930;28;45460;-76
2023/01/18 02:00:23;;;;;;;;;31.75;23.50;;;;;5.66;100.00;99134.84;5018817;28;45461;-77
2023/01/18 02:03:08;;;;;;;;;29.00;22.25;;;;;5.53;100.00;99145.19;5011669;28;45473;-77
2023/01/18 02:05:39;;;;;;;;;25.25;25.25;;;;;5.57;100.00;99138.47;5004286;28;45324;-77
2023/01/18 02:08:10;;;;;;;;;34.00;27.00;;;;;5.62;100.00;99146.94;5019135;28;45406;-77
2023/01/18 02:10:36;;;;;;;;;36.25;27.00;;;;;5.60;100.00;99139.03;5024807;28;45406;-77
2023/01/18 02:13:06;;;;;;;;;29.75;25.00;;;;;5.74;100.00;99161.84;5017669;28;45485;-77
2023/01/18 02:16:26;;;;;;;;;31.50;27.00;;;;;5.70;100.00;99165.84;5019629;28;45216;-77
2023/01/18 02:19:42;;;;;;;;;29.50;28.00;;;;;5.77;100.00;99164.25;4961263;28;45465;-77
2023/01/18 02:22:43;;;;;;;;;37.25;28.75;;;;;5.72;100.00;99153.06;4990413;28;45432;-77
2023/01/18 02:25:46;;;;;;;;;30.00;26.00;;;;;5.89;100.00;99165.72;5021170;28;47897;-77
2023/01/18 02:28:44;;;;;;;;;29.75;25.50;;;;;5.81;100.00;99173.69;5032972;28;45327;-76
2023/01/18 02:31:16;;;;;;;;;26.00;23.25;;;;;5.84;100.00;99170.72;5001577;28;45333;-77
2023/01/18 02:34:16;;;;;;;;;31.75;28.00;;;;;5.79;100.00;99173.00;5018573;28;45460;-76
2023/01/18 02:37:00;;;;;;;;;31.25;25.75;;;;;5.84;100.00;99181.50;5023051;28;46609;-77
2023/01/18 02:39:43;;;;;;;;;26.75;23.75;;;;;5.82;100.00;99181.63;5022949;28;45311;-77
2023/01/18 02:47:54;;;;;;;;;28.50;26.00;;;;;5.66;100.00;99172.56;5020114;28;45785;-77
2023/01/18 02:50:25;;;;;;;;;30.25;24.00;;;;;5.63;100.00;99189.88;5022136;28;45425;-77
2023/01/18 02:52:52;;;;;;;;;25.00;23.25;;;;;5.65;100.00;99185.19;5019948;28;45447;-76
2023/01/18 02:55:29;;;;;;;;;29.25;26.25;;;;;5.67;100.00;99185.88;5039630;28;45649;-77
2023/01/18 02:58:03;;;;;;;;;27.00;25.00;;;;;5.65;100.00;99195.97;5013439;28;46602;-77
2023/01/18 03:00:32;;;;;;;;;31.25;24.50;;;;;5.50;100.00;99189.44;5019135;28;45413;-76
2023/01/18 03:02:59;;;;;;;;;30.50;23.75;;;;;5.47;100.00;99200.53;5019292;28;45411;-77
2023/01/18 03:05:26;;;;;;;;;25.25;22.25;;;;;5.53;100.00;99212.53;5018652;28;45613;-76
2023/01/18 03:08:08;;;;;;;;;29.00;24.75;;;;;5.48;100.00;99203.03;4997511;28;47753;-77
2023/01/18 03:10:42;;;;;;;;;28.25;25.25;;;;;5.42;100.00;99211.75;5021809;28;45296;-77
2023/01/18 03:13:19;;;;;;;;;32.00;24.75;;;;;5.41;100.00;99207.34;4998612;28;45554;-77
2023/01/18 03:15:44;;;;;;;;;28.75;21.75;;;;;5.49;100.00;99214.66;5006921;28;45313;-77
2023/01/18 03:18:24;;;;;;;;;32.25;25.50;;;;;5.42;100.00;99219.81;5010799;28;46311;-77
2023/01/18 03:20:54;;;;;;;;;33.00;27.00;;;;;5.39;100.00;99227.38;5023961;28;45971;-77
2023/01/18 03:23:40;;;;;;;;;28.75;28.75;;;;;5.38;100.00;99237.31;5017131;28;45309;-77
2023/01/18 03:26:16;;;;;;;;;32.25;28.25;;;;;5.35;100.00;99223.28;5016740;28;45400;-76
2023/01/18 03:35:02;;;;;;;;;28.50;22.00;;;;;5.19;100.00;99234.72;5022869;28;45392;-77
2023/01/18 03:37:32;;;;;;;;;24.75;22.50;;;;;5.21;100.00;99238.09;5017212;28;45618;-77
2023/01/18 03:40:07;;;;;;;;;21.00;17.00;;;;;5.17;100.00;99247.50;5013824;28;46731;-77
2023/01/18 03:42:41;;;;;;;;;24.50;21.75;;;;;5.13;100.00;99238.00;5012124;28;45384;-77
2023/01/18 03:45:19;;;;;;;;;26.50;23.00;;;;;5.15;100.00;99237.88;5015265;28;45391;-77
2023/01/18 03:47:49;;;;;;;;;24.00;23.25;;;;;5.10;100.00;99235.66;5001509;28;45341;-77
2023/01/18 03:50:15;;;;;;;;;24.00;21.50;;;;;5.16;100.00;99256.56;5035825;28;47047;-77
2023/01/18 03:52:43;;;;;;;;;25.50;25.00;;;;;5.09;100.00;99261.72;5020392;28;45293;-76
2023/01/18 03:55:33;;;;;;;;;36.25;31.00;;;;;5.08;100.00;99276.16;5020900;28;45415;-77
2023/01/18 03:58:08;;;;;;;;;26.75;25.50;;;;;5.20;100.00;99268.72;5033496;28;45391;-77
2023/01/18 04:00:34;;;;;;;;;33.50;31.75;;;;;5.07;100.00;99282.53;5017034;28;45311;-77
2023/01/18 04:02:59;;;;;;;;;33.50;28.25;;;;;4.96;100.00;99287.28;5017941;28;45501;-77
2023/01/18 04:05:25;;;;;;;;;34.25;29.25;;;;;4.86;100.00;99281.09;5034632;28;45351;-77
2023/01/18 04:07:50;;;;;;;;;27.75;23.00;;;;;4.84;100.00;99289.28;5017395;28;45525;-77
2023/01/18 04:10:15;;;;;;;;;36.00;28.75;;;;;4.89;100.00;99294.25;5022422;28;46560;-76
2023/01/18 04:12:41;;;;;;;;;30.25;29.50;;;;;4.92;100.00;99293.94;4999004;28;45223;-77
2023/01/18 04:15:07;;;;;;;;;34.75;29.00;;;;;4.85;100.00;99298.22;5018848;28;45487;-76
2023/01/18 04:17:32;;;;;;;;;32.50;30.25;;;;;4.84;100.00;99307.28;5016223;28;45548;-77
2023/01/18 04:19:57;;;;;;;;;34.50;29.25;;;;;4.88;100.00;99311.38;5022046;28;46510;-77
2023/01/18 04:22:23;;;;;;;;;38.00;31.75;;;;;4.86;100.00;99314.22;5001422;28;45425;-77
2023/01/18 04:24:48;;;;;;;;;30.00;28.75;;;;;4.89;100.00;99316.63;5002765;28;45350;-76
2023/01/18 04:27:14;;;;;;;;;40.00;30.75;;;;;4.76;100.00;99299.09;5019970;28;45585;-77
2023/01/18 04:29:39;;;;;;;;;38.00;26.00;;;;;4.85;100.00;99325.13;5019473;28;46221;-79
2023/01/18 04:32:05;;;;;;;;;35.75;28.00;;;;;4.77;100.00;99316.94;5018615;28;45541;-76
2023/01/18 04:34:31;;;;;;;;;40.25;31.25;;;;;4.85;100.00;99333.19;5018266;28;45269;-76
2023/01/18 04:36:57;;;;;;;;;32.25;26.25;;;;;4.78;100.00;99313.25;5021230;28;45521;-76
2023/01/18 04:39:22;;;;;;;;;39.25;31.50;;;;;4.89;100.00;99334.63;5012817;28;46047;-76
2023/01/18 04:41:48;;;;;;;;;32.25;27.00;;;;;4.79;100.00;99326.56;5020237;28;45176;-76
2023/01/18 04:44:13;;;;;;;;;38.25;29.25;;;;;4.84;100.00;99321.59;4999060;28;45333;-76
2023/01/18 04:46:38;;;;;;;;;32.75;26.75;;;;;4.97;100.00;99332.88;5020556;28;45323;-77
2023/01/18 04:49:05;;;;;;;;;33.75;29.75;;;;;5.01;100.00;99341.50;5032883;28;47087;-79
2023/01/18 04:51:30;;;;;;;;;31.25;26.50;;;;;5.08;100.00;99346.16;5037839;28;45411;-76
2023/01/18 04:53:57;;;;;;;;;36.75;28.75;;;;;4.98;100.00;99339.09;5016369;28;45430;-76
2023/01/18 04:56:23;;;;;;;;;37.00;32.00;;;;;4.91;100.00;99327.22;5023070;28;46548;-76
2023/01/18 04:58:52;;;;;;;;;44.50;31.00;;;;;4.97;100.00;99345.47;5010573;28;47757;-76
2023/01/18 05:01:18;;;;;;;;;38.50;31.25;;;;;4.93;100.00;99344.09;5022588;28;45272;-76
2023/01/18 05:03:44;;;;;;;;;26.50;22.00;;;;;4.88;100.00;99344.53;5027750;28;45240;-76
2023/01/18 05:06:12;;;;;;;;;37.75;32.00;;;;;4.88;100.00;99346.38;5022724;28;45475;-76
2023/01/18 05:08:41;;;;;;;;;36.00;32.25;;;;;4.91;100.00;99348.75;5016002;28;46601;-75
2023/01/18 05:11:09;;;;;;;;;36.00;31.75;;;;;4.90;100.00;99360.50;5011571;28;45362;-75
2023/01/18 05:13:35;;;;;;;;;38.25;31.50;;;;;4.95;100.00;99355.56;5016319;28;45303;-80
2023/01/18 05:16:02;;;;;;;;;32.75;28.00;;;;;4.94;100.00;99359.25;5018133;28;45233;-77
2023/01/18 05:18:28;;;;;;;;;32.75;30.75;;;;;4.91;100.00;99354.97;5027367;28;47990;-77
2023/01/18 05:20:53;;;;;;;;;32.50;26.75;;;;;4.83;100.00;99357.56;5021845;28;45473;-78
2023/01/18 05:23:18;;;;;;;;;34.00;32.25;;;;;4.85;100.00;99371.72;5015265;28;45450;-79
2023/01/18 05:25:44;;;;;;;;;31.00;27.00;;;;;4.82;100.00;99371.19;5022382;28;45255;-76
2023/01/18 05:28:09;;;;;;;;;36.00;33.50;;;;;4.85;100.00;99370.88;5014000;28;46883;-76
2023/01/18 05:30:40;;;;;;;;;40.50;36.50;;;;;4.81;100.00;99373.03;5003525;28;45289;-77
2023/01/18 05:33:07;;;;;;;;;39.50;33.75;;;;;4.94;100.00;99380.78;5015471;28;45279;-77
2023/01/18 05:35:32;;;;;;;;;29.25;27.50;;;;;4.97;100.00;99381.31;5004308;28;45282;-77
2023/01/18 05:37:58;;;;;;;;;36.00;27.00;;;;;4.95;100.00;99379.78;4998185;28;46876;-77
2023/01/18 05:40:23;;;;;;;;;40.75;33.75;;;;;5.01;100.00;99385.44;5017915;28;45390;-77
2023/01/18 05:42:48;;;;;;;;;30.25;25.25;;;;;5.02;100.00;99389.81;5032410;28;45372;-77
2023/01/18 05:45:14;;;;;;;;;35.50;29.25;;;;;5.01;100.00;99393.50;5019831;28;45416;-76
2023/01/18 05:47:40;;;;;;;;;34.50;30.25;;;;;4.96;100.00;99405.69;4999894;28;47987;-77
2023/01/18 05:50:06;;;;;;;;;43.25;29.00;;;;;4.98;100.00;99415.31;5035491;28;45473;-78
2023/01/18 05:52:32;;;;;;;;;30.50;29.25;;;;;4.86;100.00;99404.88;5019746;28;45407;-77
2023/01/18 05:54:57;;;;;;;;;34.75;27.00;;;;;4.81;100.00;99412.53;5021729;28;45339;-76
2023/01/18 05:57:23;;;;;;;;;41.75;29.25;;;;;4.96;100.00;99420.00;5000876;28;46745;-78
2023/01/18 05:59:48;;;;;;;;;34.00;27.00;;;;;4.91;100.00;99418.72;4996058;28;45492;-77
2023/01/18 06:02:13;;;;;;;;;33.00;29.75;;;;;4.99;100.00;99417.00;5018150;28;45315;-77
2023/01/18 06:04:39;;;;;;;;;31.00;26.75;;;;;4.99;100.00;99422.41;5015796;28;45279;-78
2023/01/18 06:07:04;;;;;;;;;40.50;35.75;;;;;4.85;100.00;99430.94;5022384;28;46361;-76
2023/01/18 06:09:30;;;;;;;;;32.50;28.75;;;;;4.77;100.00;99429.94;5019651;28;45427;-76
2023/01/18 06:11:55;;;;;;;;;37.00;32.75;;;;;4.76;100.00;99428.25;5037869;28;45658;-76
2023/01/18 06:14:21;;;;;;;;;33.00;29.25;;;;;4.77;100.00;99432.63;5017598;28;45256;-76
2023/01/18 06:16:46;;;;;;;;;43.00;34.50;;;;;4.79;100.00;99433.34;5022205;28;46610;-76
2023/01/18 06:19:12;;;;;;;;;33.75;30.25;;;;;4.68;100.00;99445.94;5018991;28;45356;-79
2023/01/18 06:21:37;;;;;;;;;40.25;32.25;;;;;4.78;100.00;99443.25;5022413;28;45297;-76
2023/01/18 06:24:02;;;;;;;;;37.75;33.25;;;;;4.75;100.00;99451.59;5018194;28;45370;-79
2023/01/18 06:26:30;;;;;;;;;37.50;33.25;;;;;4.73;100.00;99463.53;5006418;28;48037;-77
2023/01/18 06:28:56;;;;;;;;;33.75;30.75;;;;;4.66;100.00;99460.56;5002186;28;45428;-77
2023/01/18 06:31:21;;;;;;;;;42.25;34.50;;;;;4.62;100.00;99454.59;5023892;28;45444;-78
2023/01/18 06:33:47;;;;;;;;;34.25;33.50;;;;;4.72;100.00;99470.75;4998970;28;45474;-76
2023/01/18 06:36:12;;;;;;;;;40.75;34.50;;;;;4.86;100.00;99472.13;5005456;28;46252;-76
2023/01/18 06:38:38;;;;;;;;;35.50;29.25;;;;;4.83;100.00;99475.97;5035221;28;45143;-78
2023/01/18 06:41:03;;;;;;;;;35.50;30.00;;;;;4.88;100.00;99484.47;5018989;28;45415;-76
2023/01/18 06:43:29;;;;;;;;;33.75;28.75;;;;;4.79;100.00;99497.91;5020599;28;45656;-76
2023/01/18 06:45:55;;;;;;;;;31.00;26.00;;;;;4.77;100.00;99492.69;5021903;28;45523;-77
2023/01/18 06:48:22;;;;;;;;;34.75;29.50;;;;;4.66;100.00;99495.53;5003248;28;45241;-76
2023/01/18 06:50:48;;;;;;;;;42.00;36.25;;;;;4.76;100.00;99506.25;5022291;28;45434;-77
2023/01/18 06:53:13;;;;;;;;;33.00;26.00;;;;;4.78;100.00;99499.75;5021799;28;45654;-75
2023/01/18 06:55:39;;;;;;;;;31.50;27.50;;;;;4.84;100.00;99507.25;5038099;28;46888;-77
2023/01/18 06:58:05;;;;;;;;;24.00;19.25;;;;;4.85;100.00;99510.81;5018121;28;45480;-77
2023/01/18 07:00:30;;;;;;;;;40.00;33.75;;;;;4.87;100.00;99519.59;5019259;28;45718;-77
2023/01/18 07:02:57;;;;;;;;;33.25;30.00;;;;;4.90;100.00;99514.75;5000733;28;45519;-76
2023/01/18 07:05:22;;;;;;;;;46.75;40.50;;;;;4.94;100.00;99508.13;5019375;28;45616;-75
2023/01/18 07:07:48;;;;;;;;;41.50;36.00;;;;;5.02;100.00;99519.03;4999867;28;45621;-74
2023/01/18 07:10:13;;;;;;;;;32.25;25.00;;;;;4.93;100.00;99513.63;5023493;28;45321;-77
2023/01/18 07:12:39;;;;;;;;;38.00;33.75;;;;;4.85;100.00;99518.88;5021050;28;45415;-76
2023/01/18 07:15:06;;;;;;;;;39.50;32.75;;;;;4.87;100.00;99535.75;5018081;28;48038;-76
2023/01/18 07:17:31;;;;;;;;;32.75;28.50;;;;;4.94;100.00;99529.66;5019318;28;45732;-76
2023/01/18 07:19:57;;;;;;;;;46.50;37.00;;;;;4.82;100.00;99536.16;5020375;28;45510;-74
2023/01/18 07:22:22;;;;;;;;;35.75;29.50;;;;;4.83;100.00;99548.59;5035227;28;45572;-75
2023/01/18 07:24:47;;;;;;;;;23.50;22.00;;;;;4.73;100.00;99549.63;5020280;28;45407;-76
2023/01/18 07:27:13;;;;;;;;;37.00;32.00;;;;;4.82;100.00;99559.53;5034377;28;45379;-77
2023/01/18 07:29:38;;;;;;;;;35.75;28.75;;;;;4.84;100.00;99558.38;5022068;28;45450;-76
2023/01/18 07:32:04;;;;;;;;;32.50;30.00;;;;;4.96;100.00;99556.44;5003526;28;45543;-75
2023/01/18 07:34:29;;;;;;;;;38.00;33.00;;;;;4.95;100.00;99549.34;5033899;28;47866;-75
2023/01/18 07:36:55;;;;;;;;;27.75;25.50;;;;;4.99;100.00;99562.38;5020242;28;46120;-77
2023/01/18 07:39:20;;;;;;;;;35.75;30.75;;;;;5.02;100.00;99566.63;5022799;28;45776;-76
2023/01/18 07:41:45;;;;;;;;;29.75;26.75;;;;;4.91;100.00;99574.81;5022716;28;45415;-76
2023/01/18 07:44:11;;;;;;;;;36.50;29.00;;;;;4.94;100.00;99583.47;5001583;28;47127;-78
2023/01/18 07:46:37;;;;;;;;;31.25;29.25;;;;;5.01;100.00;99583.75;5023372;28;45433;-75
2023/01/18 07:49:04;;;;;;;;;36.25;31.25;;;;;4.97;100.00;99585.00;5018194;28;45963;-76
2023/01/18 07:51:31;;;;;;;;;36.25;30.75;;;;;4.98;100.00;99602.88;5023516;28;45312;-79
2023/01/18 07:53:56;;;;;;;;;43.50;35.00;;;;;4.92;100.00;99603.44;5020302;28;45450;-75
2023/01/18 07:56:24;;;;;;;;;28.25;16.25;;;;;5.02;100.00;99605.16;5023014;28;45326;-77
2023/01/18 07:58:50;;;;;;;;;31.25;28.75;;;;;5.01;100.00;99608.00;5013048;28;45393;-79
2023/01/18 08:01:18;;;;;;;;;28.25;24.00;;;;;5.05;100.00;99614.78;5024080;28;45311;-77
2023/01/18 08:03:48;;;;;;;;;28.50;21.00;;;;;5.00;100.00;99606.28;5023078;28;45220;-79
2023/01/18 08:06:18;;;;;;;;;36.75;33.50;;;;;5.02;100.00;99620.47;5012925;28;45371;-76
2023/01/18 08:08:43;;;;;;;;;41.50;33.50;;;;;5.13;100.00;99612.22;4999771;28;45694;-77
2023/01/18 08:11:09;;;;;;;;;41.00;31.75;;;;;5.12;100.00;99613.22;5005155;28;45683;-77
2023/01/18 08:13:35;;;;;;;;;43.25;32.50;;;;;4.97;100.00;99606.53;5017946;28;47291;-77
2023/01/18 08:16:03;;;;;;;;;32.50;28.25;;;;;5.14;100.00;99597.78;5005497;28;45593;-76
2023/01/18 08:18:28;;;;;;;;;40.50;33.75;;;;;5.15;100.00;99604.88;5000805;28;45516;-77
2023/01/18 08:20:54;;;;;;;;;38.50;29.00;;;;;5.16;100.00;99625.41;5021453;28;45487;-77
2023/01/18 08:23:20;;;;;;;;;32.00;28.50;;;;;4.94;100.00;99628.38;5044010;28;47154;-77
2023/01/18 08:25:46;;;;;;;;;35.25;33.00;;;;;5.08;100.00;99641.44;4999084;28;45313;-75
2023/01/18 08:28:12;;;;;;;;;40.25;29.50;;;;;5.23;100.00;99641.84;5018291;28;45667;-76
2023/01/18 08:30:41;;;;;;;;;34.25;29.50;;;;;5.35;100.00;99633.50;5021706;28;45676;-77
2023/01/18 08:33:07;;;;;;;;;31.75;29.50;;;;;5.41;100.00;99643.69;5019668;28;45454;-76
2023/01/18 08:35:42;;;;;;;;;37.25;29.00;;;;;5.45;100.00;99639.72;5036817;28;45253;-76
2023/01/18 08:38:08;;;;;;;;;37.00;33.75;;;;;5.51;100.00;99632.91;5018686;28;45417;-76
2023/01/18 08:40:34;;;;;;;;;31.00;26.50;;;;;5.61;100.00;99643.69;5022542;28;45327;-77
2023/01/18 08:43:01;;;;;;;;;44.25;39.25;;;;;5.58;100.00;99650.22;5035606;28;47099;-76
2023/01/18 08:45:27;;;;;;;;;52.00;37.50;;;;;5.59;100.00;99643.81;5022355;28;45344;-76
2023/01/18 08:48:02;;;;;;;;;33.50;29.25;;;;;5.66;100.00;99653.03;5001738;28;45467;-76
2023/01/18 08:50:29;;;;;;;;;45.50;34.75;;;;;5.80;100.00;99662.50;5020947;28;45080;-75
2023/01/18 08:52:55;;;;;;;;;38.50;32.75;;;;;5.76;100.00;99670.06;4999813;28;46159;-77
2023/01/18 08:55:21;;;;;;;;;45.00;36.00;;;;;5.73;100.00;99667.63;5014586;28;45245;-77
2023/01/18 08:57:48;;;;;;;;;42.00;31.00;;;;;5.80;100.00;99665.22;5019974;28;45308;-77
2023/01/18 09:00:14;;;;;;;;;35.25;30.50;;;;;5.80;100.00;99668.75;5022519;28;45512;-79
2023/01/18 09:02:40;;;;;;;;;34.25;29.50;;;;;5.92;100.00;99680.25;5019755;28;45387;-77
2023/01/18 09:05:05;;;;;;;;;43.00;35.50;;;;;5.96;100.00;99681.69;5022345;28;45323;-76
2023/01/18 09:07:31;;;;;;;;;55.50;43.75;;;;;5.98;100.00;99695.88;5017588;28;45490;-76
2023/01/18 09:09:56;;;;;;;;;53.75;42.00;;;;;6.03;100.00;99698.13;5020941;28;45631;-77
2023/01/18 09:12:22;;;;;;;;;47.25;33.25;;;;;6.03;100.00;99709.75;5019188;28;46428;-77
2023/01/18 09:14:48;;;;;;;;;52.25;42.50;;;;;6.05;100.00;99718.56;5016984;28;45321;-76
2023/01/18 09:17:14;;;;;;;;;44.50;37.25;;;;;6.08;100.00;99720.94;5019640;28;45451;-77
2023/01/18 09:19:39;;;;;;;;;50.25;37.25;;;;;6.18;100.00;99720.94;5021989;28;45311;-77
2023/01/18 09:22:05;;;;;;;;;42.25;32.75;;;;;6.10;100.00;99724.34;5020475;28;46202;-76
2023/01/18 09:24:31;;;;;;;;;60.00;45.50;;;;;6.15;100.00;99730.16;5017344;28;45297;-77
2023/01/18 09:26:56;;;;;;;;;50.00;41.75;;;;;6.21;100.00;99723.31;5019698;28;45668;-77
2023/01/18 09:29:22;;;;;;;;;41.50;40.00;;;;;6.20;100.00;99733.28;5017833;28;45250;-76
2023/01/18 09:31:48;;;;;;;;;49.50;34.50;;;;;6.13;100.00;99747.50;5020095;28;46474;-76
2023/01/18 09:34:15;;;;;;;;;43.50;37.75;;;;;6.23;100.00;99740.22;5017118;28;45422;-77
2023/01/18 09:36:41;;;;;;;;;58.00;44.75;;;;;6.31;100.00;99739.50;5022230;28;45451;-77
2023/01/18 09:39:07;;;;;;;;;42.50;38.00;;;;;6.11;100.00;99742.25;5015606;28;45351;-77
2023/01/18 09:41:32;;;;;;;;;37.25;30.75;;;;;6.10;100.00;99748.63;5024696;28;45403;-77
2023/01/18 09:44:16;;;;;;;;;28.25;21.25;;;;;6.13;100.00;99747.50;5001492;28;45610;-79
2023/01/18 09:46:44;;;;;;;;;37.75;36.25;;;;;6.14;100.00;99747.31;5028991;28;45452;-77
2023/01/18 09:49:21;;;;;;;;;24.00;15.00;;;;;6.19;100.00;99758.56;5022035;28;45273;-76
2023/01/18 09:51:59;;;;;;;;;42.50;37.75;;;;;6.27;100.00;99770.47;5024183;28;45571;-76
2023/01/18 09:54:38;;;;;;;;;40.25;33.50;;;;;6.25;100.00;99768.75;5023614;28;45465;-77
2023/01/18 09:57:16;;;;;;;;;40.50;35.00;;;;;6.35;100.00;99767.91;5005206;28;45337;-77
2023/01/18 10:00:17;;;;;;;;;50.00;39.25;;;;;6.28;100.00;99756.00;5014360;28;45403;-76
2023/01/18 10:02:45;;;;;;;;;40.75;33.25;;;;;6.22;100.00;99777.13;5011905;28;46043;-77
2023/01/18 10:05:17;;;;;;;;;40.25;29.50;;;;;5.94;100.00;99787.94;5018792;28;45457;-79
2023/01/18 10:08:12;;;;;;;;;40.25;29.25;;;;;5.96;100.00;99794.91;5019799;28;46414;-77
2023/01/18 10:10:50;;;;;;;;;41.75;27.00;;;;;6.27;100.00;99775.88;5001802;28;45327;-77
2023/01/18 10:14:12;;;;;;;;;44.75;28.50;;;;;6.50;100.00;99788.03;5018293;28;45536;-77
2023/01/18 10:16:37;;;;;;;;;21.00;17.25;;;;;6.46;100.00;99775.81;4920132;28;45385;-76
2023/01/18 10:19:04;;;;;;;;;35.00;27.00;;;;;6.55;100.00;99783.03;4998845;28;45453;-79
2023/01/18 10:21:53;;;;;;;;;28.50;23.00;;;;;6.28;100.00;99782.97;5040127;28;45407;-78
2023/01/18 10:24:30;;;;;;;;;32.50;26.75;;;;;6.48;100.00;99798.09;5020190;28;45427;-77
2023/01/18 10:27:22;;;;;;;;;24.25;19.25;;;;;6.66;100.00;99799.03;5023244;28;45431;-77
2023/01/18 10:30:27;;;;;;;;;26.00;22.50;;;;;6.68;100.00;99797.06;5020555;28;45162;-79
2023/01/18 10:32:57;;;;;;;;;28.50;27.00;;;;;6.85;100.00;99799.00;5016304;28;45498;-77
2023/01/18 10:35:52;;;;;;;;;27.00;24.00;;;;;6.98;100.00;99799.50;5024582;28;45467;-78
2023/01/18 10:38:25;;;;;;;;;24.75;20.50;;;;;6.81;100.00;99808.38;5018150;28;45529;-78
2023/01/18 10:40:57;;;;;;;;;30.25;23.00;;;;;6.81;100.00;99805.66;5039728;28;45343;-78
2023/01/18 10:43:24;;;;;;;;;14.25;12.25;;;;;6.81;100.00;99797.56;5020714;28;45476;-77
2023/01/18 10:45:52;;;;;;;;;20.00;16.75;;;;;6.95;100.00;99802.50;5006011;28;47387;-78
2023/01/18 10:48:17;;;;;;;;;30.00;25.25;;;;;6.98;100.00;99807.59;5021112;28;45436;-77
2023/01/18 10:50:48;;;;;;;;;12.50;6.25;;;;;7.15;100.00;99799.72;5023192;28;45502;-77
2023/01/18 10:53:22;;;;;;;;;14.25;9.00;;;;;7.04;100.00;99803.44;5022734;28;45614;-77
2023/01/18 10:56:00;;;;;;;;;23.50;16.25;;;;;7.07;100.00;99797.78;5024265;28;45424;-76
2023/01/18 10:58:32;;;;;;;;;24.75;20.00;;;;;7.00;100.00;99794.81;5035517;28;45503;-77
2023/01/18 11:00:59;;;;;;;;;16.00;12.50;;;;;7.22;100.00;99803.53;5039156;28;46236;-77
2023/01/18 11:03:26;;;;;;;;;19.00;17.75;;;;;7.24;100.00;99793.41;5003507;28;45552;-77
2023/01/18 11:05:52;;;;;;;;;22.25;20.75;;;;;7.14;100.00;99798.03;5024791;28;45732;-76
2023/01/18 11:08:22;;;;;;;;;19.25;17.75;;;;;7.39;100.00;99800.00;5022709;28;45421;-78
2023/01/18 11:11:18;;;;;;;;;14.00;14.00;;;;;7.53;100.00;99804.03;5023863;28;45477;-76
2023/01/18 11:13:48;;;;;;;;;13.00;12.00;;;;;7.48;100.00;99799.09;5017568;28;45561;-76
2023/01/18 11:16:20;;;;;;;;;18.25;15.50;;;;;7.71;100.00;99791.41;4998147;28;48362;-76
2023/01/18 11:19:01;;;;;;;;;22.25;20.25;;;;;7.86;100.00;99791.72;5018121;28;45324;-76
2023/01/18 11:21:43;;;;;;;;;17.75;16.75;;;;;7.87;100.00;99778.06;5033339;28;45324;-77
2023/01/18 11:24:17;;;;;;;;;22.25;17.25;;;;;7.85;100.00;99776.50;5018872;28;45360;-77
2023/01/18 11:26:55;;;;;;;;;24.00;17.00;;;;;7.95;100.00;99777.28;5022801;28;45511;-77
2023/01/18 11:29:25;;;;;;;;;17.25;15.75;;;;;7.77;100.00;99774.56;5020494;28;45281;-76
2023/01/18 11:31:53;;;;;;;;;13.50;11.50;;;;;7.54;100.00;99774.16;5020947;28;45742;-77
2023/01/18 11:34:27;;;;;;;;;16.50;13.50;;;;;7.29;100.00;99783.00;5019338;28;45565;-78
2023/01/18 11:36:54;;;;;;;;;13.00;11.00;;;;;7.55;100.00;99786.66;5003220;28;47180;-77
2023/01/18 11:39:25;;;;;;;;;20.00;16.25;;;;;7.49;100.00;99776.47;5019900;28;45308;-78
2023/01/18 11:41:51;;;;;;;;;6.00;6.00;;;;;7.10;100.00;99778.53;5004191;28;46474;-77
2023/01/18 11:44:22;;;;;;;;;10.67;10.00;;;;;7.50;100.00;99783.59;5003562;28;45484;-78
2023/01/18 11:46:57;;;;;;;;;16.50;13.00;;;;;7.82;100.00;99773.09;5022562;28;45601;-77
2023/01/18 11:49:49;;;;;;;;;21.00;14.67;;;;;8.06;100.00;99768.91;5019040;28;45290;-77
2023/01/18 11:52:36;;;;;;;;;14.33;10.67;;;;;8.04;100.00;99776.31;5021279;28;45404;-76
2023/01/18 11:55:13;;;;;;;;;12.33;10.33;;;;;7.97;100.00;99777.94;5015170;28;45585;-77
2023/01/18 11:57:38;;;;;;;;;14.00;13.00;;;;;7.96;100.00;99781.69;5006308;28;45991;-77
2023/01/18 12:00:13;;;;;;;;;19.00;15.75;;;;;7.90;100.00;99771.47;5023242;28;45403;-78
2023/01/18 12:03:14;;;;;;;;;6.75;6.50;;;;;7.92;100.00;99783.84;5020848;28;45439;-77